createdAt,value
2022-12-18T00:00:04.554Z,16.67
2022-12-18T00:02:42.621Z,17.38
2022-12-18T00:05:11.675Z,21.95
2022-12-18T00:07:41.060Z,17.55
2022-12-18T00:10:10.677Z,21.95
2022-12-18T00:12:49.499Z,21.83
2022-12-18T00:15:23.739Z,20.73
2022-12-18T00:17:58.505Z,19.60
2022-12-18T00:20:27.765Z,18.27
2022-12-18T00:22:58.794Z,17.75
2022-12-18T00:25:28.063Z,18.92
2022-12-18T00:28:07.323Z,17.63
2022-12-18T00:30:46.275Z,20.40
2022-12-18T00:33:15.393Z,18.75
2022-12-18T00:35:44.342Z,16.67
2022-12-18T00:38:13.508Z,16.17
2022-12-18T00:40:42.806Z,15.68
2022-12-18T00:43:21.510Z,15.82
2022-12-18T00:45:50.270Z,18.00
2022-12-18T00:48:18.907Z,17.98
2022-12-18T00:50:49.468Z,17.50
2022-12-18T00:53:23.476Z,15.23
2022-12-18T00:55:52.474Z,16.80
2022-12-18T00:58:25.962Z,15.57
2022-12-18T01:00:56.428Z,17.13
2022-12-18T01:03:25.552Z,21.33
2022-12-18T01:05:58.836Z,20.48
2022-12-18T01:08:27.582Z,27.77
2022-12-18T01:11:01.903Z,24.63
2022-12-18T01:13:30.916Z,17.63
2022-12-18T01:16:00.410Z,17.55
2022-12-18T01:18:29.251Z,24.50
2022-12-18T01:21:01.034Z,18.15
2022-12-18T01:23:31.228Z,92.53
2022-12-18T01:26:14.116Z,19.35
2022-12-18T01:28:45.188Z,22.25
2022-12-18T01:31:18.721Z,20.73
2022-12-18T01:33:54.712Z,19.05
2022-12-18T01:36:29.579Z,18.63
2022-12-18T01:39:01.381Z,18.17
2022-12-18T01:41:50.410Z,17.17
2022-12-18T01:44:38.839Z,16.58
2022-12-18T01:50:30.233Z,22.50
2022-12-18T01:53:01.796Z,19.35
2022-12-18T01:55:32.476Z,34.83
2022-12-18T01:58:02.885Z,25.33
2022-12-18T02:00:31.848Z,22.40
2022-12-18T02:03:10.676Z,17.70
2022-12-18T02:05:49.551Z,15.23
2022-12-18T02:08:23.983Z,30.70
2022-12-18T02:10:53.821Z,17.23
2022-12-18T02:13:45.260Z,16.60
2022-12-18T02:19:07.883Z,16.50
2022-12-18T02:21:42.814Z,17.15
2022-12-18T02:24:34.453Z,19.85
2022-12-18T02:27:10.652Z,18.97
2022-12-18T02:29:42.147Z,22.92
2022-12-18T02:32:16.539Z,21.15
2022-12-18T02:34:46.051Z,37.70
2022-12-18T02:37:19.256Z,34.83
2022-12-18T02:39:51.407Z,26.42
2022-12-18T02:42:24.570Z,26.98
2022-12-18T02:44:57.482Z,25.00
2022-12-18T02:47:34.322Z,29.52
2022-12-18T02:50:03.996Z,36.67
2022-12-18T02:52:36.409Z,21.33
2022-12-18T02:55:07.807Z,24.38
2022-12-18T02:57:46.574Z,18.92
2022-12-18T03:00:24.443Z,19.33
2022-12-18T03:03:00.304Z,22.63
2022-12-18T03:05:40.128Z,29.33
2022-12-18T03:08:11.967Z,23.60
2022-12-18T03:11:03.354Z,21.48
2022-12-18T03:13:47.121Z,26.67
2022-12-18T03:16:24.249Z,26.33
2022-12-18T03:19:13.934Z,28.27
2022-12-18T03:21:46.661Z,49.88
2022-12-18T03:24:18.758Z,42.15
2022-12-18T03:27:01.754Z,27.17
2022-12-18T03:29:50.849Z,161.02
2022-12-18T03:32:32.964Z,57.60
2022-12-18T03:35:08.779Z,118.63
2022-12-18T03:37:50.245Z,128.95
2022-12-18T03:40:29.465Z,160.10
2022-12-18T03:46:39.581Z,127.53
2022-12-18T03:49:16.223Z,125.05
2022-12-18T03:52:11.447Z,405.52
2022-12-18T03:54:43.190Z,125.28
2022-12-18T03:57:21.109Z,57.85
2022-12-18T03:59:56.666Z,58.80
2022-12-18T04:02:32.253Z,59.47
2022-12-18T04:05:04.573Z,50.65
2022-12-18T04:07:47.076Z,52.42
2022-12-18T04:10:17.340Z,116.97
2022-12-18T04:15:21.270Z,303.98
2022-12-18T04:17:50.954Z,109.43
2022-12-18T04:20:32.999Z,234.55
2022-12-18T04:23:13.154Z,39.58
2022-12-18T04:25:49.150Z,73.97
2022-12-18T04:28:26.210Z,56.83
2022-12-18T04:30:55.626Z,48.20
2022-12-18T04:33:37.134Z,37.75
2022-12-18T04:36:06.555Z,33.60
2022-12-18T04:38:38.448Z,32.95
2022-12-18T04:41:11.437Z,30.98
2022-12-18T04:43:42.868Z,29.25
2022-12-18T04:46:11.852Z,27.25
2022-12-18T04:48:41.093Z,26.77
2022-12-18T04:51:10.091Z,25.38
2022-12-18T04:53:39.689Z,61.97
2022-12-18T04:56:14.449Z,83.40
2022-12-18T04:58:44.140Z,45.43
2022-12-18T05:01:20.886Z,36.05
2022-12-18T05:03:50.419Z,105.63
2022-12-18T05:06:19.532Z,47.00
2022-12-18T05:08:48.596Z,32.70
2022-12-18T05:11:17.518Z,83.05
2022-12-18T05:13:48.439Z,52.80
2022-12-18T05:16:17.717Z,55.38
2022-12-18T05:18:46.456Z,49.30
2022-12-18T05:21:15.489Z,40.38
2022-12-18T05:23:44.514Z,37.92
2022-12-18T05:26:20.109Z,36.88
2022-12-18T05:28:49.180Z,44.05
2022-12-18T05:31:17.896Z,48.13
2022-12-18T05:33:46.754Z,49.08
2022-12-18T05:36:15.453Z,48.05
2022-12-18T05:38:44.455Z,52.75
2022-12-18T05:41:13.350Z,52.10
2022-12-18T05:43:42.899Z,50.90
2022-12-18T05:46:14.724Z,50.15
2022-12-18T05:48:54.012Z,48.35
2022-12-18T05:51:24.516Z,47.83
2022-12-18T05:54:03.483Z,47.00
2022-12-18T05:56:34.642Z,44.35
2022-12-18T05:59:03.356Z,45.97
2022-12-18T06:01:32.036Z,40.13
2022-12-18T06:04:11.209Z,46.03
2022-12-18T06:06:40.750Z,42.03
2022-12-18T06:09:11.023Z,39.95
2022-12-18T06:11:40.207Z,39.50
2022-12-18T06:14:10.689Z,38.38
2022-12-18T06:16:53.749Z,38.95
2022-12-18T06:19:25.118Z,37.61
2022-12-18T06:21:54.944Z,34.58
2022-12-18T06:24:24.258Z,36.08
2022-12-18T06:26:54.096Z,36.25
2022-12-18T06:29:22.914Z,38.30
2022-12-18T06:31:51.676Z,33.78
2022-12-18T06:34:24.877Z,36.22
2022-12-18T06:36:55.831Z,37.33
2022-12-18T06:39:24.736Z,38.75
2022-12-18T06:41:54.318Z,37.88
2022-12-18T06:44:23.370Z,38.28
2022-12-18T06:46:52.406Z,35.90
2022-12-18T06:49:23.396Z,34.20
2022-12-18T06:51:54.905Z,35.38
2022-12-18T06:54:30.800Z,34.42
2022-12-18T06:57:10.003Z,33.80
2022-12-18T06:59:38.997Z,34.30
2022-12-18T07:02:08.330Z,34.45
2022-12-18T07:04:37.394Z,35.85
2022-12-18T07:07:06.160Z,39.17
2022-12-18T07:09:35.085Z,39.03
2022-12-18T07:12:06.320Z,37.75
2022-12-18T07:14:35.847Z,37.95
2022-12-18T07:17:04.681Z,36.22
2022-12-18T07:19:35.687Z,38.53
2022-12-18T07:22:04.591Z,45.70
2022-12-18T07:24:34.942Z,32.67
2022-12-18T07:27:05.645Z,33.65
2022-12-18T07:29:37.704Z,33.30
2022-12-18T07:32:08.406Z,35.08
2022-12-18T07:34:37.440Z,31.75
2022-12-18T07:37:06.229Z,32.97
2022-12-18T07:39:35.038Z,31.27
2022-12-18T07:42:22.431Z,31.95
2022-12-18T07:44:52.605Z,30.98
2022-12-18T07:47:21.388Z,30.98
2022-12-18T07:49:50.675Z,32.95
2022-12-18T07:52:25.611Z,40.58
2022-12-18T07:55:06.452Z,31.38
2022-12-18T07:57:55.219Z,40.03
2022-12-18T08:00:25.814Z,40.83
2022-12-18T08:02:54.830Z,36.60
2022-12-18T08:05:28.185Z,36.10
2022-12-18T08:07:59.857Z,34.45
2022-12-18T08:10:28.598Z,34.38
2022-12-18T08:13:05.060Z,35.17
2022-12-18T08:15:36.679Z,34.95
2022-12-18T08:18:12.692Z,34.03
2022-12-18T08:20:45.674Z,36.00
2022-12-18T08:23:20.733Z,34.95
2022-12-18T08:25:50.151Z,38.10
2022-12-18T08:28:19.909Z,38.15
2022-12-18T08:30:53.494Z,38.67
2022-12-18T08:33:22.512Z,36.00
2022-12-18T08:35:53.888Z,37.35
2022-12-18T08:38:24.316Z,36.35
2022-12-18T08:41:04.168Z,34.85
2022-12-18T08:43:51.978Z,32.80
2022-12-18T08:46:24.215Z,34.40
2022-12-18T08:48:57.538Z,34.80
2022-12-18T08:51:26.611Z,33.28
2022-12-18T08:53:55.255Z,33.42
2022-12-18T08:56:23.916Z,35.42
2022-12-18T08:58:57.000Z,43.63
2022-12-18T09:01:31.165Z,36.63
2022-12-18T09:04:11.588Z,34.20
2022-12-18T09:06:41.523Z,34.05
2022-12-18T09:09:11.354Z,33.15
2022-12-18T09:11:40.338Z,30.85
2022-12-18T09:14:10.996Z,30.75
2022-12-18T09:16:40.128Z,30.50
2022-12-18T09:19:08.727Z,28.58
2022-12-18T09:21:46.112Z,28.73
2022-12-18T09:24:17.654Z,26.08
2022-12-18T09:26:47.429Z,26.77
2022-12-18T09:29:19.204Z,25.80
2022-12-18T09:31:48.953Z,25.20
2022-12-18T09:34:18.180Z,25.63
2022-12-18T09:36:47.382Z,25.45
2022-12-18T09:39:25.997Z,24.58
2022-12-18T09:42:04.728Z,24.50
2022-12-18T09:44:47.909Z,24.00
2022-12-18T09:47:21.222Z,25.80
2022-12-18T09:49:52.455Z,26.17
2022-12-18T09:52:22.070Z,25.40
2022-12-18T09:54:58.628Z,27.30
2022-12-18T09:57:28.439Z,27.83
2022-12-18T10:00:00.290Z,30.40
2022-12-18T10:02:32.877Z,29.98
2022-12-18T10:05:22.906Z,31.50
2022-12-18T10:08:02.250Z,32.30
2022-12-18T10:10:36.451Z,32.38
2022-12-18T10:16:15.320Z,33.60
2022-12-18T10:19:08.957Z,36.67
2022-12-18T10:21:47.602Z,36.40
2022-12-18T10:24:16.595Z,37.25
2022-12-18T10:26:45.997Z,36.92
2022-12-18T10:29:22.763Z,41.83
2022-12-18T10:31:52.116Z,40.17
2022-12-18T10:34:21.354Z,39.85
2022-12-18T10:36:55.565Z,41.53
2022-12-18T10:39:26.259Z,44.25
2022-12-18T10:42:10.611Z,45.17
2022-12-18T10:44:39.629Z,52.65
2022-12-18T10:47:18.036Z,52.13
2022-12-18T10:49:51.637Z,55.25
2022-12-18T10:52:22.292Z,54.92
2022-12-18T10:54:56.399Z,55.08
2022-12-18T10:57:33.450Z,102.95
2022-12-18T11:00:22.757Z,72.10
2022-12-18T11:02:51.960Z,71.15
2022-12-18T11:05:34.332Z,67.40
2022-12-18T11:08:04.287Z,64.45
2022-12-18T11:10:34.982Z,65.82
2022-12-18T11:13:42.191Z,69.70
2022-12-18T11:16:19.478Z,67.22
2022-12-18T11:18:48.458Z,70.07
2022-12-18T11:21:18.969Z,75.97
2022-12-18T11:23:56.735Z,76.78
2022-12-18T11:26:35.435Z,99.60
2022-12-18T11:29:12.478Z,88.13
2022-12-18T11:31:41.690Z,78.63
2022-12-18T11:34:30.932Z,75.15
2022-12-18T11:37:01.828Z,76.82
2022-12-18T11:39:40.016Z,100.22
2022-12-18T11:42:19.707Z,216.60
2022-12-18T11:45:01.458Z,98.50
2022-12-18T11:47:39.038Z,82.18
2022-12-18T11:50:13.670Z,72.15
2022-12-18T11:52:51.497Z,72.85
2022-12-18T11:55:32.561Z,69.43
2022-12-18T11:58:12.512Z,66.40
2022-12-18T12:01:10.307Z,71.03
2022-12-18T12:03:52.199Z,72.15
2022-12-18T12:06:29.195Z,77.50
2022-12-18T12:09:07.679Z,100.00
2022-12-18T12:11:51.954Z,108.57
2022-12-18T12:14:46.234Z,79.95
2022-12-18T12:17:33.802Z,81.90
2022-12-18T12:20:25.264Z,76.00
2022-12-18T12:23:05.055Z,81.10
2022-12-18T12:25:46.372Z,88.80
2022-12-18T12:28:21.047Z,85.57
2022-12-18T12:31:07.263Z,87.75
2022-12-18T12:33:36.593Z,85.47
2022-12-18T12:36:14.348Z,94.82
2022-12-18T12:38:51.666Z,112.60
2022-12-18T12:41:51.577Z,82.57
2022-12-18T12:44:26.449Z,85.35
2022-12-18T12:46:57.836Z,75.35
2022-12-18T12:49:40.328Z,75.95
2022-12-18T12:52:14.085Z,76.00
2022-12-18T12:54:45.753Z,70.07
2022-12-18T12:57:15.244Z,66.43
2022-12-18T13:00:01.895Z,65.35
2022-12-18T13:02:46.119Z,58.25
2022-12-18T13:05:39.148Z,62.22
2022-12-18T13:08:08.922Z,76.53
2022-12-18T13:10:38.130Z,83.55
2022-12-18T13:13:17.894Z,79.25
2022-12-18T13:16:08.988Z,69.97
2022-12-18T13:18:52.394Z,65.95
2022-12-18T13:21:28.505Z,62.35
2022-12-18T13:24:21.683Z,62.50
2022-12-18T13:27:00.199Z,56.10
2022-12-18T13:29:46.186Z,104.80
2022-12-18T13:32:26.197Z,60.80
2022-12-18T13:38:22.159Z,67.43
2022-12-18T13:40:51.499Z,83.10
2022-12-18T13:43:20.794Z,73.97
2022-12-18T13:46:02.132Z,74.05
2022-12-18T13:48:33.668Z,104.85
2022-12-18T13:51:05.647Z,81.07
2022-12-18T13:53:55.002Z,64.66
2022-12-18T13:56:29.346Z,60.20
2022-12-18T13:59:32.815Z,53.53
2022-12-18T14:02:07.235Z,46.38
2022-12-18T14:04:39.840Z,52.03
2022-12-18T14:07:13.911Z,47.33
2022-12-18T14:09:50.327Z,43.33
2022-12-18T14:12:40.931Z,42.33
2022-12-18T14:15:35.565Z,41.85
2022-12-18T14:18:26.008Z,41.85
2022-12-18T14:20:59.953Z,67.13
2022-12-18T14:23:39.825Z,55.15
2022-12-18T14:26:21.980Z,73.82
2022-12-18T14:28:51.662Z,76.40
2022-12-18T14:31:21.869Z,92.72
2022-12-18T14:34:00.011Z,58.38
2022-12-18T14:36:29.986Z,46.92
2022-12-18T14:38:59.421Z,43.60
2022-12-18T14:41:29.261Z,47.72
2022-12-18T14:44:06.693Z,40.92
2022-12-18T14:46:47.361Z,37.17
2022-12-18T14:49:20.076Z,36.65
2022-12-18T14:51:57.236Z,42.22
2022-12-18T14:54:31.391Z,36.61
2022-12-18T14:57:19.034Z,36.53
2022-12-18T14:59:54.033Z,34.17
2022-12-18T15:02:24.733Z,36.10
2022-12-18T15:05:13.289Z,36.33
2022-12-18T15:07:45.069Z,35.90
2022-12-18T15:10:22.691Z,41.15
2022-12-18T15:12:57.873Z,38.58
2022-12-18T15:15:38.610Z,38.97
2022-12-18T15:18:08.845Z,37.20
2022-12-18T15:20:52.572Z,38.30
2022-12-18T15:23:25.810Z,40.42
2022-12-18T15:26:02.005Z,38.10
2022-12-18T15:28:38.273Z,39.70
2022-12-18T15:31:08.293Z,40.72
2022-12-18T15:33:54.340Z,42.95
2022-12-18T15:36:37.718Z,43.90
2022-12-18T15:39:07.487Z,41.88
2022-12-18T15:41:38.011Z,41.22
2022-12-18T15:44:26.954Z,42.03
2022-12-18T15:47:00.137Z,41.13
2022-12-18T15:49:28.985Z,40.33
2022-12-18T15:52:01.620Z,42.25
2022-12-18T15:54:48.842Z,41.40
2022-12-18T15:57:26.059Z,45.70
2022-12-18T15:59:57.869Z,43.10
2022-12-18T16:02:27.492Z,44.17
2022-12-18T16:04:56.466Z,43.53
2022-12-18T16:07:28.097Z,41.08
2022-12-18T16:10:00.361Z,41.28
2022-12-18T16:12:31.754Z,40.45
2022-12-18T16:15:00.837Z,48.17
2022-12-18T16:17:31.774Z,41.08
2022-12-18T16:20:08.999Z,37.33
2022-12-18T16:22:37.999Z,36.55
2022-12-18T16:25:07.766Z,33.60
2022-12-18T16:27:48.149Z,32.22
2022-12-18T16:30:22.581Z,33.25
2022-12-18T16:32:51.855Z,31.48
2022-12-18T16:35:26.683Z,30.88
2022-12-18T16:37:55.366Z,27.77
2022-12-18T16:40:56.552Z,29.00
2022-12-18T16:43:25.732Z,26.95
2022-12-18T16:45:58.654Z,26.53
2022-12-18T16:48:35.893Z,25.92
2022-12-18T16:51:10.029Z,24.15
2022-12-18T16:53:49.547Z,24.75
2022-12-18T16:56:18.401Z,24.73
2022-12-18T16:58:57.802Z,23.20
2022-12-18T17:01:37.473Z,23.58
2022-12-18T17:04:12.505Z,24.20
2022-12-18T17:06:44.648Z,23.83
2022-12-18T17:09:17.548Z,20.98
2022-12-18T17:11:50.706Z,21.40
2022-12-18T17:14:20.857Z,20.83
2022-12-18T17:17:07.394Z,21.08
2022-12-18T17:19:40.386Z,21.77
2022-12-18T17:22:09.982Z,21.08
2022-12-18T17:24:45.284Z,22.50
2022-12-18T17:27:14.737Z,23.52
2022-12-18T17:29:47.691Z,21.98
2022-12-18T17:32:18.418Z,24.65
2022-12-18T17:34:47.427Z,23.70
2022-12-18T17:37:16.087Z,24.20
2022-12-18T17:39:44.928Z,25.30
2022-12-18T17:42:26.804Z,24.13
2022-12-18T17:44:55.920Z,24.55
2022-12-18T17:47:35.506Z,24.38
2022-12-18T17:50:10.147Z,22.92
2022-12-18T17:52:38.838Z,24.58
2022-12-18T17:55:13.367Z,22.90
2022-12-18T17:57:51.894Z,23.23
2022-12-18T18:00:26.053Z,24.05
2022-12-18T18:03:01.699Z,24.23
2022-12-18T18:05:30.538Z,23.75
2022-12-18T18:08:02.706Z,22.02
2022-12-18T18:10:33.666Z,22.17
2022-12-18T18:13:23.586Z,21.25
2022-12-18T18:15:57.688Z,21.38
2022-12-18T18:18:26.423Z,21.33
2022-12-18T18:20:55.633Z,21.92
2022-12-18T18:23:31.689Z,20.88
2022-12-18T18:26:04.751Z,21.65
2022-12-18T18:28:34.440Z,21.08
2022-12-18T18:31:14.842Z,20.15
2022-12-18T18:33:54.832Z,20.83
2022-12-18T18:36:24.930Z,20.80
2022-12-18T18:39:01.816Z,21.02
2022-12-18T18:41:31.609Z,22.38
2022-12-18T18:44:11.792Z,21.25
2022-12-18T18:46:44.347Z,22.41
2022-12-18T18:49:24.751Z,21.52
2022-12-18T18:51:54.387Z,21.98
2022-12-18T18:54:29.873Z,22.10
2022-12-18T18:59:49.548Z,22.00
2022-12-18T19:02:18.348Z,27.80
2022-12-18T19:04:47.464Z,23.10
2022-12-18T19:07:18.509Z,22.63
2022-12-18T19:10:09.424Z,20.45
2022-12-18T19:12:57.834Z,21.33
2022-12-18T19:15:27.114Z,20.15
2022-12-18T19:18:01.274Z,20.92
2022-12-18T19:20:36.043Z,20.20
2022-12-18T19:23:04.734Z,19.65
2022-12-18T19:25:40.633Z,19.27
2022-12-18T19:28:22.572Z,19.40
2022-12-18T19:30:59.040Z,20.30
2022-12-18T19:33:45.192Z,19.42
2022-12-18T19:36:22.282Z,20.10
2022-12-18T19:38:52.074Z,18.63
2022-12-18T19:41:27.554Z,18.30
2022-12-18T19:44:07.556Z,18.65
2022-12-18T19:46:48.789Z,19.00
2022-12-18T19:49:18.282Z,18.35
2022-12-18T19:51:47.044Z,17.67
2022-12-18T19:54:17.524Z,18.67
2022-12-18T19:56:47.367Z,18.70
2022-12-18T19:59:16.495Z,18.77
2022-12-18T20:01:45.735Z,19.35
2022-12-18T20:04:15.395Z,18.90
2022-12-18T20:06:51.227Z,17.33
2022-12-18T20:09:21.229Z,17.42
2022-12-18T20:11:53.010Z,18.58
2022-12-18T20:14:23.380Z,18.88
2022-12-18T20:16:53.437Z,19.23
2022-12-18T20:19:23.322Z,19.98
2022-12-18T20:21:52.641Z,18.02
2022-12-18T20:24:30.771Z,17.50
2022-12-18T20:27:00.240Z,16.17
2022-12-18T20:29:29.224Z,16.70
2022-12-18T20:31:57.936Z,19.10
2022-12-18T20:34:26.996Z,17.98
2022-12-18T20:37:02.063Z,17.08
2022-12-18T20:39:32.386Z,17.80
2022-12-18T20:42:02.332Z,16.02
2022-12-18T20:44:36.828Z,16.15
2022-12-18T20:47:08.805Z,16.55
2022-12-18T20:49:48.328Z,15.10
2022-12-18T20:52:26.898Z,16.35
2022-12-18T20:55:06.206Z,16.58
2022-12-18T20:57:35.166Z,16.00
2022-12-18T21:00:16.517Z,16.60
2022-12-18T21:02:49.586Z,16.83
2022-12-18T21:05:28.054Z,17.50
2022-12-18T21:08:07.713Z,15.60
2022-12-18T21:10:37.125Z,15.60
2022-12-18T21:13:07.410Z,14.82
2022-12-18T21:15:42.876Z,16.35
2022-12-18T21:18:11.620Z,16.30
2022-12-18T21:20:51.169Z,16.17
2022-12-18T21:23:35.963Z,16.88
2022-12-18T21:26:20.801Z,16.17
2022-12-18T21:28:56.582Z,17.05
2022-12-18T21:31:36.569Z,16.13
2022-12-18T21:34:06.445Z,16.10
2022-12-18T21:36:45.203Z,16.55
2022-12-18T21:39:15.826Z,16.95
2022-12-18T21:42:03.719Z,16.55
2022-12-18T21:44:41.433Z,16.35
2022-12-18T21:47:22.916Z,16.08
2022-12-18T21:49:53.276Z,14.38
2022-12-18T21:52:32.091Z,16.13
2022-12-18T21:55:09.622Z,13.77
2022-12-18T21:57:39.706Z,14.63
2022-12-18T22:00:18.474Z,15.80
2022-12-18T22:03:17.946Z,14.25
2022-12-18T22:05:43.882Z,14.15
2022-12-18T22:08:23.230Z,14.98
2022-12-18T22:10:52.976Z,15.15
2022-12-18T22:13:29.380Z,14.00
2022-12-18T22:16:04.325Z,13.80
2022-12-18T22:18:34.012Z,14.82
2022-12-18T22:21:29.299Z,14.85
2022-12-18T22:24:11.185Z,15.07
2022-12-18T22:26:40.618Z,14.63
2022-12-18T22:29:35.939Z,15.73
2022-12-18T22:32:22.232Z,15.52
2022-12-18T22:35:06.833Z,14.45
2022-12-18T22:37:38.022Z,15.23
2022-12-18T22:40:24.645Z,15.37
2022-12-18T22:42:55.080Z,16.27
2022-12-18T22:45:24.598Z,16.80
2022-12-18T22:47:53.971Z,15.85
2022-12-18T22:50:28.874Z,17.55
2022-12-18T22:52:58.232Z,16.42
2022-12-18T22:55:37.954Z,17.58
2022-12-18T22:58:16.673Z,16.50
2022-12-18T23:00:46.294Z,16.88
2022-12-18T23:03:15.075Z,17.25
2022-12-18T23:05:54.014Z,17.35
2022-12-18T23:08:34.948Z,18.83
2022-12-18T23:11:04.191Z,17.23
2022-12-18T23:13:39.795Z,18.33
2022-12-18T23:16:09.972Z,19.15
2022-12-18T23:18:39.185Z,18.50
2022-12-18T23:21:10.865Z,19.17
2022-12-18T23:23:52.158Z,19.77
2022-12-18T23:26:31.422Z,19.00
2022-12-18T23:29:01.862Z,18.67
2022-12-18T23:31:33.044Z,17.23
2022-12-18T23:34:03.055Z,20.40
2022-12-18T23:36:35.841Z,18.33
2022-12-18T23:39:29.066Z,18.42
2022-12-18T23:42:09.065Z,18.40
2022-12-18T23:44:39.882Z,19.13
2022-12-18T23:47:18.874Z,20.08
2022-12-18T23:49:47.852Z,18.25
2022-12-18T23:52:16.828Z,18.58
2022-12-18T23:54:50.839Z,19.23
2022-12-18T23:57:25.592Z,18.95
2022-12-18T23:59:56.184Z,19.92
